createdAt,value
2023-03-26T00:00:29.649Z,9.00
2023-03-26T00:01:36.408Z,9.02
2023-03-26T00:02:39.851Z,9.08
2023-03-26T00:03:44.999Z,9.09
2023-03-26T00:04:47.279Z,9.05
2023-03-26T00:05:49.884Z,9.03
2023-03-26T00:06:52.206Z,9.00
2023-03-26T00:07:54.304Z,9.06
2023-03-26T00:08:57.712Z,9.08
2023-03-26T00:09:59.812Z,9.10
2023-03-26T00:11:03.119Z,9.08
2023-03-26T00:12:05.321Z,9.08
2023-03-26T00:13:08.225Z,9.05
2023-03-26T00:14:14.301Z,9.01
2023-03-26T00:15:16.663Z,8.99
2023-03-26T00:16:19.994Z,9.04
2023-03-26T00:17:22.637Z,9.05
2023-03-26T00:18:30.198Z,9.05
2023-03-26T00:19:32.390Z,9.09
2023-03-26T00:20:34.597Z,9.09
2023-03-26T00:21:37.331Z,9.09
2023-03-26T00:22:40.476Z,9.08
2023-03-26T00:23:43.283Z,9.05
2023-03-26T00:24:48.439Z,9.08
2023-03-26T00:25:51.394Z,9.09
2023-03-26T00:26:54.001Z,9.05
2023-03-26T00:27:56.186Z,9.07
2023-03-26T00:29:00.252Z,9.10
2023-03-26T00:30:04.162Z,9.20
2023-03-26T00:31:08.289Z,9.17
2023-03-26T00:32:10.408Z,9.13
2023-03-26T00:33:12.586Z,9.10
2023-03-26T00:34:18.608Z,9.05
2023-03-26T00:35:22.494Z,9.09
2023-03-26T00:36:26.772Z,9.07
2023-03-26T00:37:30.347Z,9.09
2023-03-26T00:38:38.702Z,9.05
2023-03-26T00:39:42.819Z,9.02
2023-03-26T00:40:48.052Z,8.99
2023-03-26T00:41:54.450Z,9.03
2023-03-26T00:42:57.115Z,9.05
2023-03-26T00:44:00.153Z,9.09
2023-03-26T00:45:02.364Z,9.14
2023-03-26T00:46:05.103Z,9.13
2023-03-26T00:47:07.872Z,9.18
2023-03-26T00:48:09.981Z,9.22
2023-03-26T00:49:14.881Z,9.22
2023-03-26T00:50:17.093Z,9.19
2023-03-26T00:51:20.752Z,9.16
2023-03-26T00:52:23.559Z,9.15
2023-03-26T00:53:25.748Z,9.15
2023-03-26T00:54:28.542Z,9.11
2023-03-26T00:55:30.618Z,9.06
2023-03-26T00:56:32.763Z,9.12
2023-03-26T00:57:37.432Z,9.14
2023-03-26T00:58:39.874Z,9.13
2023-03-26T00:59:42.313Z,9.06
2023-03-26T01:00:57.463Z,8.99
2023-03-26T01:02:00.368Z,8.95
2023-03-26T01:03:04.698Z,8.93
2023-03-26T01:04:31.827Z,8.89
2023-03-26T01:05:34.139Z,8.76
2023-03-26T01:06:41.466Z,8.71
2023-03-26T01:07:44.742Z,8.69
2023-03-26T01:08:49.007Z,8.63
2023-03-26T01:09:51.576Z,8.56
2023-03-26T01:11:02.873Z,8.52
2023-03-26T01:12:07.517Z,8.47
2023-03-26T01:13:10.070Z,8.43
2023-03-26T01:14:16.382Z,8.37
2023-03-26T01:15:18.673Z,8.33
2023-03-26T01:16:42.890Z,8.25
2023-03-26T01:17:45.033Z,8.17
2023-03-26T01:18:48.784Z,8.08
2023-03-26T01:20:12.448Z,8.06
2023-03-26T01:21:22.721Z,8.01
2023-03-26T01:22:26.688Z,7.94
2023-03-26T01:23:49.046Z,7.89
2023-03-26T01:24:56.479Z,7.86
2023-03-26T01:26:12.211Z,7.90
2023-03-26T01:27:24.539Z,7.86
2023-03-26T01:28:29.143Z,7.80
2023-03-26T01:29:49.455Z,7.72
2023-03-26T01:31:17.328Z,7.73
2023-03-26T01:32:24.759Z,7.66
2023-03-26T01:33:45.570Z,7.64
2023-03-26T01:35:13.198Z,7.66
2023-03-26T01:36:42.736Z,7.63
2023-03-26T01:37:52.615Z,7.58
2023-03-26T01:39:03.747Z,7.46
2023-03-26T01:40:18.138Z,7.38
2023-03-26T01:41:37.517Z,7.35
2023-03-26T01:42:52.560Z,7.42
2023-03-26T01:44:00.645Z,7.59
2023-03-26T01:45:16.667Z,7.73
2023-03-26T01:46:19.496Z,7.74
2023-03-26T01:47:22.244Z,7.72
2023-03-26T01:48:50.835Z,7.76
2023-03-26T01:49:52.965Z,7.76
2023-03-26T01:50:56.409Z,7.73
2023-03-26T01:52:00.697Z,7.67
2023-03-26T01:53:02.832Z,7.62
2023-03-26T01:54:07.462Z,7.55
2023-03-26T01:55:11.797Z,7.47
2023-03-26T01:56:46.116Z,7.41
2023-03-26T01:58:08.175Z,7.29
2023-03-26T01:59:29.008Z,7.28
2023-03-26T02:00:34.155Z,7.32
2023-03-26T02:01:57.432Z,7.36
2023-03-26T02:03:18.082Z,7.34
2023-03-26T02:04:45.920Z,7.29
2023-03-26T02:06:20.238Z,7.22
2023-03-26T02:07:51.042Z,7.12
2023-03-26T02:09:03.154Z,7.13
2023-03-26T02:10:11.372Z,7.10
2023-03-26T02:11:16.034Z,7.04
2023-03-26T02:12:19.960Z,7.01
2023-03-26T02:13:22.250Z,6.99
2023-03-26T02:14:24.857Z,7.00
2023-03-26T02:15:27.154Z,6.97
2023-03-26T02:16:29.271Z,6.94
2023-03-26T02:17:33.160Z,6.90
2023-03-26T02:18:41.447Z,6.91
2023-03-26T02:19:43.602Z,6.91
2023-03-26T02:20:45.699Z,6.86
2023-03-26T02:21:51.593Z,6.84
2023-03-26T02:22:53.831Z,6.87
2023-03-26T02:24:04.087Z,6.85
2023-03-26T02:25:11.228Z,6.80
2023-03-26T02:26:15.818Z,6.79
2023-03-26T02:27:18.472Z,6.77
2023-03-26T02:28:20.651Z,6.74
2023-03-26T02:29:22.845Z,6.78
2023-03-26T02:30:25.883Z,6.83
2023-03-26T02:31:28.150Z,6.86
2023-03-26T02:32:30.288Z,6.83
2023-03-26T02:33:32.609Z,6.86
2023-03-26T02:34:34.738Z,6.87
2023-03-26T02:35:37.051Z,6.97
2023-03-26T02:36:39.392Z,7.02
2023-03-26T02:37:42.253Z,7.05
2023-03-26T02:38:44.387Z,7.02
2023-03-26T02:39:46.964Z,6.99
2023-03-26T02:40:49.069Z,6.96
2023-03-26T02:41:51.142Z,6.98
2023-03-26T02:42:53.254Z,6.94
2023-03-26T02:43:55.407Z,6.95
2023-03-26T02:44:57.552Z,7.01
2023-03-26T02:45:59.860Z,6.91
2023-03-26T02:47:02.052Z,6.82
2023-03-26T02:48:04.517Z,6.78
2023-03-26T02:49:06.681Z,6.72
2023-03-26T02:50:09.699Z,6.67
2023-03-26T02:51:11.814Z,6.63
2023-03-26T02:52:17.131Z,6.60
2023-03-26T02:53:19.390Z,6.59
2023-03-26T02:54:22.095Z,6.60
2023-03-26T02:55:24.228Z,6.59
2023-03-26T02:56:26.492Z,6.56
2023-03-26T02:57:28.835Z,6.52
2023-03-26T02:58:30.999Z,6.50
2023-03-26T02:59:33.145Z,6.48
2023-03-26T03:00:35.673Z,6.44
2023-03-26T03:01:42.839Z,6.44
2023-03-26T03:02:47.889Z,6.45
2023-03-26T03:03:50.418Z,6.48
2023-03-26T03:04:52.497Z,6.42
2023-03-26T03:05:55.326Z,6.36
2023-03-26T03:06:57.778Z,6.35
2023-03-26T03:08:00.316Z,6.37
2023-03-26T03:09:02.876Z,6.33
2023-03-26T03:10:08.414Z,6.31
2023-03-26T03:11:16.180Z,6.26
2023-03-26T03:12:18.320Z,6.21
2023-03-26T03:13:20.422Z,6.17
2023-03-26T03:14:22.524Z,6.06
2023-03-26T03:15:25.015Z,6.01
2023-03-26T03:16:27.588Z,5.98
2023-03-26T03:17:29.762Z,6.03
2023-03-26T03:18:31.844Z,6.08
2023-03-26T03:19:34.067Z,6.06
2023-03-26T03:20:36.282Z,5.96
2023-03-26T03:21:38.632Z,5.93
2023-03-26T03:22:41.257Z,5.89
2023-03-26T03:23:43.331Z,5.90
2023-03-26T03:24:45.854Z,5.87
2023-03-26T03:25:49.097Z,5.84
2023-03-26T03:26:55.072Z,5.84
2023-03-26T03:27:57.154Z,5.84
2023-03-26T03:28:59.589Z,5.78
2023-03-26T03:30:01.700Z,5.77
2023-03-26T03:31:05.238Z,5.83
2023-03-26T03:32:07.396Z,5.86
2023-03-26T03:33:09.560Z,5.82
2023-03-26T03:34:11.663Z,5.83
2023-03-26T03:35:13.823Z,5.90
2023-03-26T03:36:20.270Z,5.97
2023-03-26T03:37:23.457Z,6.07
2023-03-26T03:38:25.580Z,6.04
2023-03-26T03:39:27.675Z,6.10
2023-03-26T03:40:29.790Z,6.07
2023-03-26T03:41:31.956Z,6.09
2023-03-26T03:42:34.047Z,6.05
2023-03-26T03:43:36.214Z,6.08
2023-03-26T03:44:38.390Z,6.07
2023-03-26T03:45:40.698Z,6.05
2023-03-26T03:46:42.890Z,5.98
2023-03-26T03:47:45.080Z,5.94
2023-03-26T03:48:50.398Z,5.98
2023-03-26T03:49:53.719Z,6.01
2023-03-26T03:50:56.571Z,6.05
2023-03-26T03:51:58.703Z,6.04
2023-03-26T03:53:01.147Z,6.03
2023-03-26T03:54:03.726Z,6.01
2023-03-26T03:55:06.271Z,6.06
2023-03-26T03:56:14.675Z,6.07
2023-03-26T03:57:18.878Z,6.12
2023-03-26T03:58:24.949Z,6.10
2023-03-26T03:59:27.079Z,6.06
2023-03-26T04:00:30.711Z,6.05
2023-03-26T04:01:32.925Z,6.04
2023-03-26T04:02:35.412Z,6.16
2023-03-26T04:03:38.975Z,6.21
2023-03-26T04:04:41.401Z,6.19
2023-03-26T04:05:49.419Z,6.24
2023-03-26T04:06:52.432Z,6.41
2023-03-26T04:07:54.585Z,6.39
2023-03-26T04:08:57.123Z,6.39
2023-03-26T04:10:00.272Z,6.43
2023-03-26T04:11:02.578Z,6.48
2023-03-26T04:12:04.748Z,6.56
2023-03-26T04:13:06.831Z,6.65
2023-03-26T04:14:10.199Z,6.69
2023-03-26T04:15:12.357Z,6.77
2023-03-26T04:16:33.194Z,6.82
2023-03-26T04:17:42.400Z,6.86
2023-03-26T04:18:46.403Z,6.91
2023-03-26T04:19:50.411Z,6.94
2023-03-26T04:20:52.571Z,6.96
2023-03-26T04:21:55.405Z,6.96
2023-03-26T04:22:58.051Z,6.93
2023-03-26T04:24:02.163Z,6.94
2023-03-26T04:25:05.265Z,6.90
2023-03-26T04:26:10.494Z,6.87
2023-03-26T04:27:17.887Z,6.87
2023-03-26T04:28:32.080Z,6.87
2023-03-26T04:29:44.155Z,6.97
2023-03-26T04:30:46.270Z,7.14
2023-03-26T04:31:50.377Z,7.12
2023-03-26T04:32:53.136Z,7.09
2023-03-26T04:34:18.411Z,7.10
2023-03-26T04:35:20.706Z,7.04
2023-03-26T04:36:27.289Z,6.98
2023-03-26T04:37:34.984Z,6.93
2023-03-26T04:38:41.561Z,6.87
2023-03-26T04:39:44.998Z,6.86
2023-03-26T04:40:47.503Z,6.80
2023-03-26T04:41:49.663Z,6.78
2023-03-26T04:42:54.721Z,6.73
2023-03-26T04:43:56.871Z,6.68
2023-03-26T04:44:59.905Z,6.69
2023-03-26T04:46:03.414Z,6.70
2023-03-26T04:47:05.531Z,6.70
2023-03-26T04:48:08.973Z,6.76
2023-03-26T04:49:11.068Z,6.78
2023-03-26T04:50:13.188Z,6.82
2023-03-26T04:51:19.234Z,6.88
2023-03-26T04:52:21.391Z,6.92
2023-03-26T04:53:24.285Z,6.98
2023-03-26T04:54:26.660Z,6.99
2023-03-26T04:55:39.431Z,7.03
2023-03-26T04:56:53.214Z,7.05
2023-03-26T04:57:57.292Z,7.06
2023-03-26T04:59:01.539Z,7.10
2023-03-26T05:00:15.071Z,7.14
2023-03-26T05:01:17.627Z,7.18
2023-03-26T05:03:22.730Z,7.28
2023-03-26T05:04:26.681Z,7.33
2023-03-26T05:05:29.358Z,7.37
2023-03-26T05:06:34.317Z,7.47
2023-03-26T05:07:36.910Z,7.51
2023-03-26T05:08:39.117Z,7.63
2023-03-26T05:09:41.504Z,7.67
2023-03-26T05:10:43.615Z,7.75
2023-03-26T05:11:45.749Z,7.82
2023-03-26T05:12:48.268Z,7.90
2023-03-26T05:13:50.498Z,7.95
2023-03-26T05:14:52.649Z,7.99
2023-03-26T05:15:55.673Z,8.02
2023-03-26T05:16:57.780Z,8.10
2023-03-26T05:18:00.062Z,8.17
2023-03-26T05:19:02.486Z,8.24
2023-03-26T05:20:05.182Z,8.32
2023-03-26T05:21:07.444Z,8.37
2023-03-26T05:22:09.557Z,8.41
2023-03-26T05:23:11.799Z,8.46
2023-03-26T05:24:13.948Z,8.51
2023-03-26T05:25:17.598Z,8.57
2023-03-26T05:26:19.749Z,8.58
2023-03-26T05:27:21.919Z,8.61
2023-03-26T05:28:25.501Z,8.65
2023-03-26T05:29:27.687Z,8.73
2023-03-26T05:30:29.920Z,8.73
2023-03-26T05:31:32.095Z,8.75
2023-03-26T05:32:34.848Z,8.78
2023-03-26T05:33:37.353Z,8.85
2023-03-26T05:34:40.394Z,8.93
2023-03-26T05:35:43.480Z,9.03
2023-03-26T05:36:45.664Z,9.04
2023-03-26T05:37:49.861Z,9.11
2023-03-26T05:38:52.396Z,9.20
2023-03-26T05:39:55.067Z,9.22
2023-03-26T05:41:01.306Z,9.22
2023-03-26T05:42:03.553Z,9.22
2023-03-26T05:43:06.167Z,9.21
2023-03-26T05:44:08.328Z,9.21
2023-03-26T05:45:12.075Z,9.19
2023-03-26T05:46:14.756Z,9.25
2023-03-26T05:47:17.052Z,9.25
2023-03-26T05:48:19.508Z,9.29
2023-03-26T05:49:21.619Z,9.42
2023-03-26T05:50:23.719Z,9.55
2023-03-26T05:51:25.982Z,9.58
2023-03-26T05:52:28.432Z,9.69
2023-03-26T05:53:30.892Z,9.77
2023-03-26T05:54:33.073Z,9.90
2023-03-26T05:55:35.224Z,10.01
2023-03-26T05:56:37.400Z,10.10
2023-03-26T05:57:40.346Z,10.18
2023-03-26T05:58:42.503Z,10.29
2023-03-26T05:59:44.862Z,10.40
2023-03-26T06:00:48.643Z,10.53
2023-03-26T06:01:51.081Z,10.56
2023-03-26T06:02:56.629Z,10.65
2023-03-26T06:03:59.562Z,10.77
2023-03-26T06:05:02.858Z,10.85
2023-03-26T06:06:16.301Z,10.83
2023-03-26T06:07:19.868Z,10.89
2023-03-26T06:08:22.131Z,10.95
2023-03-26T06:09:24.296Z,11.01
2023-03-26T06:10:26.435Z,11.04
2023-03-26T06:11:28.636Z,11.04
2023-03-26T06:12:30.804Z,11.14
2023-03-26T06:13:33.007Z,11.18
2023-03-26T06:14:35.556Z,11.06
2023-03-26T06:15:37.998Z,11.11
2023-03-26T06:16:40.194Z,11.08
2023-03-26T06:17:42.367Z,11.10
2023-03-26T06:18:44.896Z,11.17
2023-03-26T06:19:47.964Z,11.20
2023-03-26T06:20:51.146Z,11.28
2023-03-26T06:21:53.381Z,11.36
2023-03-26T06:22:55.573Z,11.34
2023-03-26T06:23:57.716Z,11.43
2023-03-26T06:24:59.849Z,11.46
2023-03-26T06:26:01.971Z,11.48
2023-03-26T06:27:04.088Z,11.56
2023-03-26T06:28:06.660Z,11.61
2023-03-26T06:29:09.199Z,11.66
2023-03-26T06:30:11.836Z,11.68
2023-03-26T06:31:14.047Z,11.74
2023-03-26T06:32:20.001Z,11.78
2023-03-26T06:33:24.525Z,11.89
2023-03-26T06:34:27.078Z,11.89
2023-03-26T06:35:30.033Z,11.89
2023-03-26T06:36:32.129Z,11.95
2023-03-26T06:37:34.355Z,12.04
2023-03-26T06:38:36.597Z,11.88
2023-03-26T06:39:38.780Z,11.81
2023-03-26T06:40:41.002Z,11.70
2023-03-26T06:41:43.176Z,11.60
2023-03-26T06:43:10.087Z,11.59
2023-03-26T06:44:07.930Z,11.83
2023-03-26T06:45:10.441Z,11.94
2023-03-26T06:46:13.262Z,12.12
2023-03-26T06:47:15.644Z,12.16
2023-03-26T06:48:17.758Z,12.25
2023-03-26T06:49:20.920Z,12.32
2023-03-26T06:50:23.053Z,12.39
2023-03-26T06:51:25.362Z,12.62
2023-03-26T06:52:28.621Z,12.72
2023-03-26T06:53:30.794Z,12.79
2023-03-26T06:54:33.021Z,12.74
2023-03-26T06:55:35.208Z,12.83
2023-03-26T06:56:37.354Z,12.80
2023-03-26T06:57:39.470Z,12.74
2023-03-26T06:58:41.577Z,12.63
2023-03-26T06:59:43.761Z,12.56
2023-03-26T07:00:46.329Z,12.46
2023-03-26T07:01:48.604Z,12.36
2023-03-26T07:02:50.968Z,12.40
2023-03-26T07:03:53.083Z,12.57
2023-03-26T07:04:55.485Z,12.73
2023-03-26T07:05:57.619Z,12.84
2023-03-26T07:06:59.751Z,12.86
2023-03-26T07:08:03.131Z,13.02
2023-03-26T07:09:05.258Z,12.95
2023-03-26T07:10:08.112Z,13.04
2023-03-26T07:11:10.272Z,13.14
2023-03-26T07:12:12.410Z,13.27
2023-03-26T07:13:15.517Z,13.22
2023-03-26T07:14:17.653Z,13.32
2023-03-26T07:15:19.810Z,13.40
2023-03-26T07:16:22.624Z,13.38
2023-03-26T07:17:24.872Z,13.37
2023-03-26T07:18:27.079Z,13.32
2023-03-26T07:19:29.184Z,13.35
2023-03-26T07:20:31.542Z,13.32
2023-03-26T07:21:34.048Z,13.35
2023-03-26T07:22:36.474Z,13.48
2023-03-26T07:23:38.874Z,13.45
2023-03-26T07:24:41.341Z,13.48
2023-03-26T07:25:43.801Z,13.57
2023-03-26T07:27:00.862Z,13.69
2023-03-26T07:28:12.361Z,13.71
2023-03-26T07:29:45.006Z,13.76
2023-03-26T07:31:05.992Z,13.77
2023-03-26T07:32:20.330Z,13.92
2023-03-26T07:33:34.537Z,13.98
2023-03-26T07:34:55.874Z,13.92
2023-03-26T07:36:06.015Z,13.92
2023-03-26T07:37:14.114Z,13.92
2023-03-26T07:38:35.397Z,14.10
2023-03-26T07:39:52.678Z,14.08
2023-03-26T07:41:16.045Z,14.12
2023-03-26T07:42:36.713Z,14.34
2023-03-26T07:43:57.513Z,14.34
2023-03-26T07:45:20.066Z,14.48
2023-03-26T07:46:28.538Z,14.40
2023-03-26T07:47:34.145Z,14.43
2023-03-26T07:48:41.831Z,14.57
2023-03-26T07:49:44.812Z,14.53
2023-03-26T07:50:48.474Z,14.73
2023-03-26T07:51:50.922Z,14.78
2023-03-26T07:52:53.367Z,15.06
2023-03-26T07:53:56.316Z,14.87
2023-03-26T07:54:58.676Z,14.82
2023-03-26T07:56:17.903Z,14.75
2023-03-26T07:57:45.530Z,14.84
2023-03-26T07:59:21.602Z,15.13
2023-03-26T08:00:23.793Z,15.48
2023-03-26T08:01:34.633Z,15.73
2023-03-26T08:02:52.551Z,15.52
2023-03-26T08:04:29.795Z,15.55
2023-03-26T08:05:35.406Z,14.97
2023-03-26T08:06:39.173Z,14.90
2023-03-26T08:08:07.555Z,14.65
2023-03-26T08:09:17.923Z,14.32
2023-03-26T08:10:55.543Z,14.20
2023-03-26T08:12:04.111Z,13.74
2023-03-26T08:13:21.312Z,13.98
2023-03-26T08:14:26.665Z,14.05
2023-03-26T08:15:33.093Z,13.89
2023-03-26T08:17:13.805Z,14.04
2023-03-26T08:18:27.779Z,14.16
2023-03-26T08:20:07.019Z,14.10
2023-03-26T08:21:17.090Z,14.23
2023-03-26T08:22:41.380Z,14.27
2023-03-26T08:24:03.489Z,14.13
2023-03-26T08:25:33.324Z,14.03
2023-03-26T08:27:02.651Z,13.90
2023-03-26T08:28:18.620Z,14.03
2023-03-26T08:29:36.548Z,14.06
2023-03-26T08:30:38.841Z,14.05
2023-03-26T08:31:42.728Z,14.08
2023-03-26T08:33:17.961Z,14.19
2023-03-26T08:34:20.392Z,13.93
2023-03-26T08:35:23.541Z,14.07
2023-03-26T08:36:26.757Z,14.10
2023-03-26T08:37:29.311Z,14.25
2023-03-26T08:38:31.478Z,14.29
2023-03-26T08:39:33.616Z,14.31
2023-03-26T08:40:47.803Z,14.41
2023-03-26T08:42:14.190Z,14.58
2023-03-26T08:43:38.347Z,14.61
2023-03-26T08:45:10.494Z,14.51
2023-03-26T08:46:46.378Z,14.40
2023-03-26T08:48:08.533Z,14.48
2023-03-26T08:49:38.294Z,14.66
2023-03-26T08:51:22.152Z,14.73
2023-03-26T08:52:50.483Z,14.78
2023-03-26T08:54:16.266Z,14.69
2023-03-26T08:55:24.408Z,14.84
2023-03-26T08:56:52.122Z,15.00
2023-03-26T08:58:14.586Z,15.05
2023-03-26T08:59:38.047Z,14.91
2023-03-26T09:00:58.708Z,14.74
2023-03-26T09:02:16.089Z,14.82
2023-03-26T09:03:28.023Z,15.08
2023-03-26T09:04:35.737Z,15.29
2023-03-26T09:05:40.503Z,15.42
2023-03-26T09:07:20.076Z,15.56
2023-03-26T09:08:53.751Z,15.71
2023-03-26T09:10:05.514Z,16.66
2023-03-26T09:11:49.003Z,17.04
2023-03-26T09:13:36.157Z,16.54
2023-03-26T09:14:56.716Z,16.72
2023-03-26T09:16:26.785Z,16.53
2023-03-26T09:17:31.976Z,16.24
2023-03-26T09:19:07.865Z,16.03
2023-03-26T09:20:43.873Z,16.05
2023-03-26T09:21:57.719Z,15.79
2023-03-26T09:23:14.959Z,15.61
2023-03-26T09:24:37.732Z,15.47
2023-03-26T09:25:53.905Z,15.33
2023-03-26T09:27:11.372Z,15.47
2023-03-26T09:28:32.072Z,15.27
2023-03-26T09:29:46.308Z,15.57
2023-03-26T09:31:07.034Z,15.57
2023-03-26T09:32:41.130Z,15.65
2023-03-26T09:34:00.411Z,15.56
2023-03-26T09:35:27.439Z,15.40
2023-03-26T09:36:50.723Z,15.17
2023-03-26T09:38:01.949Z,14.79
2023-03-26T09:39:47.685Z,14.90
2023-03-26T09:40:53.305Z,14.94
2023-03-26T09:42:20.830Z,15.08
2023-03-26T09:43:31.792Z,15.22
2023-03-26T09:44:40.810Z,15.63
2023-03-26T09:46:06.763Z,16.20
2023-03-26T09:47:14.908Z,16.40
2023-03-26T09:48:47.445Z,16.42
2023-03-26T09:50:01.503Z,16.74
2023-03-26T09:51:29.899Z,16.98
2023-03-26T09:52:42.499Z,17.00
2023-03-26T09:53:47.383Z,16.62
2023-03-26T09:55:05.302Z,16.17
2023-03-26T09:56:20.018Z,16.94
2023-03-26T09:57:29.623Z,17.54
2023-03-26T09:59:03.566Z,17.16
2023-03-26T10:00:28.122Z,17.49
2023-03-26T10:01:41.972Z,18.31
2023-03-26T10:03:08.301Z,19.09
2023-03-26T10:04:41.329Z,19.50
2023-03-26T10:05:49.144Z,19.46
2023-03-26T10:07:03.345Z,18.85
2023-03-26T10:08:25.048Z,18.41
2023-03-26T10:09:51.127Z,19.12
2023-03-26T10:11:03.188Z,18.81
2023-03-26T10:12:05.345Z,19.38
2023-03-26T10:13:14.904Z,19.52
2023-03-26T10:14:29.327Z,19.42
2023-03-26T10:15:36.636Z,19.21
2023-03-26T10:16:50.811Z,18.48
2023-03-26T10:18:27.428Z,18.42
2023-03-26T10:19:49.596Z,18.34
2023-03-26T10:21:04.846Z,17.74
2023-03-26T10:22:10.679Z,17.64
2023-03-26T10:23:37.812Z,17.16
2023-03-26T10:24:53.747Z,17.17
2023-03-26T10:26:27.895Z,16.86
2023-03-26T10:27:41.650Z,16.11
2023-03-26T10:29:08.484Z,15.92
2023-03-26T10:30:36.408Z,15.19
2023-03-26T10:31:56.097Z,15.08
2023-03-26T10:33:01.339Z,14.86
2023-03-26T10:34:39.814Z,14.86
2023-03-26T10:36:01.232Z,14.86
2023-03-26T10:37:26.262Z,14.86
2023-03-26T10:38:46.651Z,14.51
2023-03-26T10:40:13.409Z,13.84
2023-03-26T10:41:38.948Z,13.34
2023-03-26T10:42:49.860Z,13.07
2023-03-26T10:44:07.399Z,13.00
2023-03-26T10:45:25.028Z,12.90
2023-03-26T10:46:54.713Z,13.05
2023-03-26T10:47:59.565Z,12.97
2023-03-26T10:49:07.852Z,13.09
2023-03-26T10:50:28.437Z,13.26
2023-03-26T10:51:36.446Z,14.06
2023-03-26T10:52:43.113Z,14.89
2023-03-26T10:53:55.199Z,15.64
2023-03-26T10:55:12.084Z,16.36
2023-03-26T10:56:36.361Z,17.27
2023-03-26T10:57:43.114Z,17.53
2023-03-26T10:58:49.698Z,16.87
2023-03-26T10:59:55.992Z,16.63
2023-03-26T11:01:04.064Z,16.40
2023-03-26T11:02:21.315Z,15.98
2023-03-26T11:03:54.897Z,16.19
2023-03-26T11:05:29.175Z,17.44
2023-03-26T11:06:34.574Z,17.33
2023-03-26T11:07:43.181Z,16.91
2023-03-26T11:09:20.789Z,16.57
2023-03-26T11:10:40.136Z,16.36
2023-03-26T11:12:25.581Z,16.36
2023-03-26T11:13:38.935Z,16.17
2023-03-26T11:14:53.716Z,15.78
2023-03-26T11:16:05.405Z,15.27
2023-03-26T11:17:39.374Z,15.35
2023-03-26T11:19:01.952Z,15.35
2023-03-26T11:20:22.480Z,15.39
2023-03-26T11:21:56.750Z,15.47
2023-03-26T11:23:17.147Z,15.59
2023-03-26T11:24:22.385Z,15.82
2023-03-26T11:25:49.412Z,16.74
2023-03-26T11:26:56.184Z,17.15
2023-03-26T11:28:26.111Z,17.26
2023-03-26T11:29:46.328Z,16.84
2023-03-26T11:31:26.740Z,17.72
2023-03-26T11:33:07.091Z,18.40
2023-03-26T11:34:16.576Z,18.13
2023-03-26T11:35:40.448Z,17.82
2023-03-26T11:36:53.773Z,17.11
2023-03-26T11:37:57.764Z,17.01
2023-03-26T11:39:04.407Z,16.65
2023-03-26T11:40:15.705Z,15.96
2023-03-26T11:41:27.758Z,16.04
2023-03-26T11:42:30.593Z,16.12
2023-03-26T11:43:35.816Z,16.69
2023-03-26T11:44:40.093Z,17.31
2023-03-26T11:45:45.917Z,18.16
2023-03-26T11:46:50.482Z,18.66
2023-03-26T11:48:12.836Z,18.82
2023-03-26T11:49:18.293Z,19.17
2023-03-26T11:50:28.727Z,19.25
2023-03-26T11:51:33.962Z,19.53
2023-03-26T11:52:37.117Z,20.00
2023-03-26T11:53:39.808Z,20.72
2023-03-26T11:54:43.745Z,21.07
2023-03-26T11:55:59.994Z,21.46
2023-03-26T11:57:16.808Z,21.79
2023-03-26T11:58:31.484Z,22.30
2023-03-26T11:59:56.663Z,22.42
2023-03-26T12:01:02.412Z,22.45
2023-03-26T12:02:04.779Z,22.62
2023-03-26T12:03:15.765Z,22.30
2023-03-26T12:04:40.472Z,22.54
2023-03-26T12:05:51.906Z,22.10
2023-03-26T12:06:59.806Z,22.43
2023-03-26T12:08:19.708Z,22.77
2023-03-26T12:09:22.712Z,22.33
2023-03-26T12:10:37.669Z,22.25
2023-03-26T12:11:41.394Z,20.85
2023-03-26T12:12:46.612Z,20.32
2023-03-26T12:13:53.710Z,19.98
2023-03-26T12:14:55.854Z,19.68
2023-03-26T12:16:09.368Z,19.48
2023-03-26T12:17:31.423Z,18.96
2023-03-26T12:18:34.317Z,18.56
2023-03-26T12:19:41.894Z,18.46
2023-03-26T12:20:45.062Z,18.33
2023-03-26T12:21:49.949Z,18.31
2023-03-26T12:22:59.106Z,18.45
2023-03-26T12:24:04.585Z,19.48
2023-03-26T12:25:32.020Z,21.14
2023-03-26T12:26:45.026Z,21.02
2023-03-26T12:27:55.753Z,21.64
2023-03-26T12:28:57.933Z,21.90
2023-03-26T12:30:30.905Z,20.43
2023-03-26T12:31:47.378Z,19.80
2023-03-26T12:32:53.278Z,20.46
2023-03-26T12:34:34.889Z,20.55
2023-03-26T12:35:37.161Z,21.64
2023-03-26T12:36:39.576Z,22.46
2023-03-26T12:37:43.559Z,22.12
2023-03-26T12:38:46.131Z,21.44
2023-03-26T12:40:34.334Z,20.82
2023-03-26T12:44:43.006Z,21.84
2023-03-26T12:44:56.210Z,23.01
2023-03-26T12:44:59.161Z,23.90
2023-03-26T12:47:45.799Z,24.33
2023-03-26T12:47:59.790Z,24.16
2023-03-26T12:48:56.856Z,23.10
2023-03-26T12:49:59.185Z,22.54
2023-03-26T12:51:13.876Z,21.23
2023-03-26T12:52:39.732Z,21.29
2023-03-26T12:53:57.865Z,21.06
2023-03-26T12:55:35.860Z,21.66
2023-03-26T12:57:12.453Z,22.15
2023-03-26T12:58:38.344Z,21.75
2023-03-26T13:00:10.939Z,21.26
2023-03-26T13:01:20.705Z,20.85
2023-03-26T13:02:44.738Z,21.48
2023-03-26T13:04:24.365Z,21.93
2023-03-26T13:05:47.761Z,21.02
2023-03-26T13:07:01.572Z,20.41
2023-03-26T13:09:00.530Z,19.79
2023-03-26T13:10:21.206Z,19.23
2023-03-26T13:11:47.756Z,18.70
2023-03-26T13:13:01.454Z,18.44
2023-03-26T13:14:12.626Z,19.43
2023-03-26T13:15:24.092Z,20.75
2023-03-26T13:16:40.021Z,20.68
2023-03-26T13:17:44.651Z,20.32
2023-03-26T13:19:17.387Z,20.67
2023-03-26T13:20:21.557Z,21.45
2023-03-26T13:21:36.088Z,22.26
2023-03-26T13:22:50.335Z,21.51
2023-03-26T13:24:01.423Z,21.79
2023-03-26T13:25:27.772Z,21.92
2023-03-26T13:26:36.183Z,22.30
2023-03-26T13:27:47.661Z,23.38
2023-03-26T13:28:56.531Z,22.58
2023-03-26T13:30:14.179Z,22.91
2023-03-26T13:31:29.252Z,22.81
2023-03-26T13:32:42.696Z,21.27
2023-03-26T13:34:23.222Z,20.59
2023-03-26T13:35:40.180Z,20.18
2023-03-26T13:36:56.781Z,19.52
2023-03-26T13:38:01.940Z,19.23
2023-03-26T13:39:08.175Z,19.04
2023-03-26T13:40:10.400Z,19.63
2023-03-26T13:41:41.617Z,21.08
2023-03-26T13:43:05.208Z,20.02
2023-03-26T13:44:27.933Z,19.56
2023-03-26T13:46:14.893Z,19.73
2023-03-26T13:47:20.964Z,20.49
2023-03-26T13:48:27.298Z,21.40
2023-03-26T13:49:37.162Z,21.74
2023-03-26T13:50:42.751Z,22.65
2023-03-26T13:51:58.228Z,23.11
2023-03-26T13:53:08.744Z,23.47
2023-03-26T13:54:21.977Z,21.65
2023-03-26T13:55:36.463Z,20.37
2023-03-26T13:56:43.489Z,19.58
2023-03-26T13:58:22.093Z,18.92
2023-03-26T13:59:36.889Z,18.82
2023-03-26T14:00:54.949Z,20.71
2023-03-26T14:02:02.496Z,20.34
2023-03-26T14:03:16.420Z,19.21
2023-03-26T14:04:37.890Z,18.63
2023-03-26T14:05:45.636Z,18.58
2023-03-26T14:07:12.406Z,18.73
2023-03-26T14:08:19.756Z,20.75
2023-03-26T14:09:30.781Z,20.59
2023-03-26T14:10:37.847Z,20.36
2023-03-26T14:11:52.474Z,19.71
2023-03-26T14:13:07.270Z,19.17
2023-03-26T14:14:16.494Z,21.35
2023-03-26T14:15:19.049Z,22.39
2023-03-26T14:16:33.398Z,23.96
2023-03-26T14:17:47.922Z,24.45
2023-03-26T14:19:10.872Z,22.95
2023-03-26T14:20:35.291Z,21.38
2023-03-26T14:22:00.569Z,20.84
2023-03-26T14:23:21.692Z,21.16
2023-03-26T14:24:31.497Z,21.72
2023-03-26T14:26:04.727Z,20.78
2023-03-26T14:27:22.012Z,21.81
2023-03-26T14:28:59.572Z,23.34
2023-03-26T14:30:23.792Z,21.03
2023-03-26T14:31:31.627Z,20.37
2023-03-26T14:33:12.396Z,20.06
2023-03-26T14:34:35.970Z,19.48
2023-03-26T14:35:38.639Z,20.29
2023-03-26T14:37:18.973Z,21.47
2023-03-26T14:38:52.726Z,22.21
2023-03-26T14:40:38.981Z,23.86
2023-03-26T14:41:57.210Z,24.27
2023-03-26T14:43:36.485Z,22.54
2023-03-26T14:45:10.137Z,22.72
2023-03-26T14:46:18.006Z,23.05
2023-03-26T14:47:24.886Z,22.81
2023-03-26T14:48:53.963Z,22.90
2023-03-26T14:50:36.268Z,23.09
2023-03-26T14:51:53.545Z,23.10
2023-03-26T14:53:01.364Z,22.98
2023-03-26T14:54:08.470Z,22.82
2023-03-26T14:55:19.206Z,22.01
2023-03-26T14:56:33.292Z,21.52
2023-03-26T14:57:38.603Z,20.67
2023-03-26T14:59:02.998Z,20.66
2023-03-26T15:00:27.726Z,20.69
2023-03-26T15:02:08.876Z,21.61
2023-03-26T15:03:39.333Z,21.92
2023-03-26T15:05:07.294Z,21.51
2023-03-26T15:06:24.368Z,21.62
2023-03-26T15:07:30.295Z,21.25
2023-03-26T15:09:25.201Z,21.48
2023-03-26T15:11:12.334Z,22.12
2023-03-26T15:12:26.258Z,22.66
2023-03-26T15:14:04.000Z,22.91
2023-03-26T15:15:54.762Z,22.26
2023-03-26T15:17:18.644Z,22.35
2023-03-26T15:18:48.298Z,23.12
2023-03-26T15:19:58.688Z,23.06
2023-03-26T15:21:38.640Z,21.18
2023-03-26T15:22:51.563Z,20.91
2023-03-26T15:24:15.628Z,19.40
2023-03-26T15:25:40.290Z,18.46
2023-03-26T15:27:04.362Z,18.34
2023-03-26T15:28:19.022Z,19.70
2023-03-26T15:29:46.115Z,20.14